PWSweather.com
Personal Weather Stations
Station Observations
MDHALE1
Southwest Baltimore Co., Halethorpe, MD 21227

Southwest Baltimore Co.Halethorpe, MD 21227

Lat: 39.23643, Lon: -76.696959

Elevation: 86

Station Type: Davis Vantage Pro2+

http://home.comcast.net/~halethorpe_weather/index.html

Latest ConditionsUpdated 8:00:13 AM EDT Friday, Oct 24, 2014
Currently Today's Max Today's Min Today's Average
Temperature 52.4°F11.3°C 56.6°F13.7°C 52.4°F11.3°C 54.5°F12.5°C
Dew Point 42.5°F5.8°C 46.3°F7.9°C 40.6°F4.8°C 42.1°F5.6°C
Winds Calm Calm 4.2 mph NW6.8 kmh NW - 1.3 mph 2.1 kmh
Wind Gusts -- 16.0 mph25.7 kmh - -
Humidity 69% 71% 57% 63%
Pressure 29.92 in1013.2 mb 29.92 in1013.2 mb 29.86 in1011.2 mb -
Hour Temp Dew Point Humidity Winds Wind Gusts Pressure Precip Precip Rate Daily Precip Total
08:00 AM 52.4°F11.3°C 42.5°F5.8°C 69% Calm Calm -- 29.92 in1013.2 mb 0.00 in0.0 mm 0.00 in/hr0.0 mm/hr 0.00 in0.0 mm
07:45 AM 52.6°F11.4°C 42.7°F5.9°C 69% 1.0 mph NW1.6 kmh NW 2.3 mph3.7 kmh 29.92 in1013.2 mb 0.00 in0.0 mm 0.00 in/hr0.0 mm/hr 0.00 in0.0 mm
07:30 AM 52.8°F11.6°C 42.9°F6.1°C 69% 1.1 mph NW1.8 kmh NW 3.4 mph5.5 kmh 29.91 in1012.9 mb 0.00 in0.0 mm 0.00 in/hr0.0 mm/hr 0.00 in0.0 mm
07:15 AM 53.0°F11.7°C 43.1°F6.2°C 69% 1.1 mph NW1.8 kmh NW 4.6 mph7.4 kmh 29.91 in1012.9 mb 0.00 in0.0 mm 0.00 in/hr0.0 mm/hr 0.00 in0.0 mm
07:00 AM 53.3°F11.8°C 43.0°F6.1°C 68% Calm Calm -- 29.91 in1012.9 mb 0.00 in0.0 mm 0.00 in/hr0.0 mm/hr 0.00 in0.0 mm
06:45 AM 53.5°F11.9°C 42.8°F6.0°C 67% 1.3 mph NW2.1 kmh NW 6.8 mph10.9 kmh 29.90 in1012.5 mb 0.00 in0.0 mm 0.00 in/hr0.0 mm/hr 0.00 in0.0 mm
06:30 AM 53.7°F12.1°C 43.0°F6.1°C 67% 1.1 mph WNW1.8 kmh WNW 4.6 mph7.4 kmh 29.90 in1012.5 mb 0.00 in0.0 mm 0.00 in/hr0.0 mm/hr 0.00 in0.0 mm
06:15 AM 53.9°F12.2°C 42.8°F6.0°C 66% Calm Calm 1.1 mph1.8 kmh 29.90 in1012.5 mb 0.00 in0.0 mm 0.00 in/hr0.0 mm/hr 0.00 in0.0 mm
06:00 AM 53.9°F12.2°C 42.8°F6.0°C 66% 4.2 mph NW6.8 kmh NW 4.6 mph7.4 kmh 29.89 in1012.2 mb 0.00 in0.0 mm 0.00 in/hr0.0 mm/hr 0.00 in0.0 mm
05:45 AM 53.9°F12.2°C 42.8°F6.0°C 66% 2.4 mph NE3.9 kmh NE 12.5 mph20.1 kmh 29.89 in1012.2 mb 0.00 in0.0 mm 0.00 in/hr0.0 mm/hr 0.00 in0.0 mm
05:30 AM 54.0°F12.2°C 42.5°F5.8°C 65% 1.4 mph NE2.3 kmh NE 4.6 mph7.4 kmh 29.89 in1012.2 mb 0.00 in0.0 mm 0.00 in/hr0.0 mm/hr 0.00 in0.0 mm
05:15 AM 54.1°F12.3°C 42.6°F5.9°C 65% 1.7 mph NE2.7 kmh NE 5.7 mph9.2 kmh 29.88 in1011.9 mb 0.00 in0.0 mm 0.00 in/hr0.0 mm/hr 0.00 in0.0 mm
05:00 AM 54.1°F12.3°C 42.2°F5.7°C 64% 0.3 mph NE0.5 kmh NE 1.1 mph1.8 kmh 29.87 in1011.5 mb 0.00 in0.0 mm 0.00 in/hr0.0 mm/hr 0.00 in0.0 mm
04:45 AM 53.9°F12.2°C 42.0°F5.6°C 64% 4.0 mph WNW6.4 kmh WNW 16.0 mph25.7 kmh 29.87 in1011.5 mb 0.00 in0.0 mm 0.00 in/hr0.0 mm/hr 0.00 in0.0 mm
04:30 AM 53.8°F12.1°C 41.5°F5.3°C 63% 1.1 mph NW1.8 kmh NW 10.3 mph16.6 kmh 29.87 in1011.5 mb 0.00 in0.0 mm 0.00 in/hr0.0 mm/hr 0.00 in0.0 mm
04:15 AM 53.9°F12.2°C 41.6°F5.3°C 63% 3.8 mph NW6.1 kmh NW 4.6 mph7.4 kmh 29.87 in1011.5 mb 0.00 in0.0 mm 0.00 in/hr0.0 mm/hr 0.00 in0.0 mm
04:00 AM 53.9°F12.2°C 41.2°F5.1°C 62% 0.2 mph S0.3 kmh S 1.1 mph1.8 kmh 29.87 in1011.5 mb 0.00 in0.0 mm 0.00 in/hr0.0 mm/hr 0.00 in0.0 mm
03:45 AM 54.1°F12.3°C 40.9°F4.9°C 61% 3.0 mph N4.8 kmh N 8.0 mph12.9 kmh 29.87 in1011.5 mb 0.00 in0.0 mm 0.00 in/hr0.0 mm/hr 0.00 in0.0 mm
03:30 AM 54.2°F12.3°C 41.0°F5.0°C 61% 1.2 mph NNW1.9 kmh NNW 2.3 mph3.7 kmh 29.87 in1011.5 mb 0.00 in0.0 mm 0.00 in/hr0.0 mm/hr 0.00 in0.0 mm
03:15 AM 54.3°F12.4°C 41.1°F5.1°C 61% 0.6 mph WNW1.0 kmh WNW 4.6 mph7.4 kmh 29.87 in1011.5 mb 0.00 in0.0 mm 0.00 in/hr0.0 mm/hr 0.00 in0.0 mm
03:00 AM 54.7°F12.6°C 41.5°F5.3°C 61% 1.0 mph N1.6 kmh N 4.6 mph7.4 kmh 29.86 in1011.2 mb 0.00 in0.0 mm 0.00 in/hr0.0 mm/hr 0.00 in0.0 mm
02:45 AM 55.0°F12.8°C 40.9°F4.9°C 59% 2.7 mph WNW4.3 kmh WNW 8.0 mph12.9 kmh 29.87 in1011.5 mb 0.00 in0.0 mm 0.00 in/hr0.0 mm/hr 0.00 in0.0 mm
02:30 AM 55.3°F12.9°C 40.8°F4.9°C 58% 0.8 mph WNW1.3 kmh WNW 6.8 mph10.9 kmh 29.86 in1011.2 mb 0.00 in0.0 mm 0.00 in/hr0.0 mm/hr 0.00 in0.0 mm
02:15 AM 55.6°F13.1°C 40.6°F4.8°C 57% 1.1 mph N1.8 kmh N 4.6 mph7.4 kmh 29.86 in1011.2 mb 0.00 in0.0 mm 0.00 in/hr0.0 mm/hr 0.00 in0.0 mm
02:00 AM 55.8°F13.2°C 40.8°F4.9°C 57% 1.4 mph NW2.3 kmh NW 6.8 mph10.9 kmh 29.86 in1011.2 mb 0.00 in0.0 mm 0.00 in/hr0.0 mm/hr 0.00 in0.0 mm
01:45 AM 55.7°F13.2°C 41.1°F5.1°C 58% 0.6 mph NW1.0 kmh NW 2.3 mph3.7 kmh 29.86 in1011.2 mb 0.00 in0.0 mm 0.00 in/hr0.0 mm/hr 0.00 in0.0 mm
01:30 AM 56.2°F13.4°C 41.2°F5.1°C 57% 0.9 mph NW1.4 kmh NW 4.6 mph7.4 kmh 29.86 in1011.2 mb 0.00 in0.0 mm 0.00 in/hr0.0 mm/hr 0.00 in0.0 mm
01:15 AM 56.6°F13.7°C 41.5°F5.3°C 57% 0.2 mph NW0.3 kmh NW 1.1 mph1.8 kmh 29.87 in1011.5 mb 0.00 in0.0 mm 0.00 in/hr0.0 mm/hr 0.00 in0.0 mm
01:00 AM 56.6°F13.7°C 42.0°F5.6°C 58% 1.7 mph N2.7 kmh N 6.8 mph10.9 kmh 29.86 in1011.2 mb 0.00 in0.0 mm 0.00 in/hr0.0 mm/hr 0.00 in0.0 mm
12:45 AM 56.2°F13.4°C 42.5°F5.8°C 60% 1.5 mph N2.4 kmh N 6.8 mph10.9 kmh 29.86 in1011.2 mb 0.00 in0.0 mm 0.00 in/hr0.0 mm/hr 0.00 in0.0 mm
12:30 AM 56.0°F13.3°C 42.7°F5.9°C 61% 0.2 mph NW0.3 kmh NW 1.1 mph1.8 kmh 29.86 in1011.2 mb 0.00 in0.0 mm 0.00 in/hr0.0 mm/hr 0.00 in0.0 mm
12:15 AM 55.3°F12.9°C 43.7°F6.5°C 65% 0.3 mph NW0.5 kmh NW 6.8 mph10.9 kmh 29.86 in1011.2 mb 0.00 in0.0 mm 0.00 in/hr0.0 mm/hr 0.00 in0.0 mm
12:01 AM 55.5°F13.1°C 46.3°F7.9°C 71% 0.8 mph NE1.3 kmh NE 1.1 mph1.8 kmh 29.87 in1011.5 mb 0.00 in0.0 mm 0.00 in/hr0.0 mm/hr 0.00 in0.0 mm